Time;durP1;ratioP1;P1;durP2;ratioP2;P2;SDS_P1;SDS_P2;PMS_P1;PMS_P2;Temp;Humidity;BMP_temperature;BMP_pressure;BME280_temperature;BME280_humidity;BME280_pressure;Samples;Min_cycle;Max_cycle;Signal;HPM_P1;HPM_P2
2023/12/12 00:01:41;;;;;;;;;;;;;;;5.81;100.00;100404.94;5009124;28;19922;-79
2023/12/12 00:04:07;;;;;;;;;;;;;;;5.91;100.00;100411.72;5117751;23;19932;-79
2023/12/12 00:06:32;;;;;;;;;;;;;;;5.88;100.00;100398.72;4988505;28;19930;-80
2023/12/12 00:08:57;;;;;;;;;;;;;;;5.75;100.00;100401.16;4992934;28;19921;-80
2023/12/12 00:11:22;;;;;;;;;;;;;;;5.81;100.00;100412.97;4992458;28;19921;-80
2023/12/12 00:13:48;;;;;;;;;;;;;;;5.75;100.00;100401.97;4991365;28;19922;-78
2023/12/12 00:16:13;;;;;;;;;;;;;;;5.91;100.00;100408.25;4996931;28;19944;-78
2023/12/12 00:18:38;;;;;;;;;;;;;;;5.93;100.00;100414.22;4994259;28;19928;-79
2023/12/12 00:21:04;;;;;;;;;;;;;;;5.91;100.00;100411.72;4985769;28;19926;-78
2023/12/12 00:23:29;;;;;;;;;;;;;;;5.95;100.00;100403.38;4993552;28;19929;-78
2023/12/12 00:26:01;;;;;;;;;;;;;;;6.02;100.00;100398.97;4994842;28;19922;-78
2023/12/12 00:31:01;;;;;;;;;;;;;;;5.99;100.00;100404.69;5173223;23;19933;-79
2023/12/12 00:33:27;;;;;;;;;;;;;;;6.03;100.00;100408.66;5001456;28;19922;-79
2023/12/12 00:35:52;;;;;;;;;;;;;;;6.02;100.00;100407.00;5003685;28;19918;-79
2023/12/12 00:38:17;;;;;;;;;;;;;;;6.05;100.00;100407.50;5004196;28;19929;-79
2023/12/12 00:40:52;;;;;;;;;;;;;;;5.98;100.00;100409.19;5004270;28;19929;-79
2023/12/12 00:43:17;;;;;;;;;;;;;;;5.96;100.00;100408.53;5008419;28;20357;-79
2023/12/12 00:45:42;;;;;;;;;;;;;;;6.01;100.00;100408.00;4994302;28;19929;-78
2023/12/12 00:48:07;;;;;;;;;;;;;;;6.06;100.00;100402.97;4999763;28;19921;-78
2023/12/12 00:50:35;;;;;;;;;;;;;;;6.03;100.00;100400.66;5008939;28;19922;-79
2023/12/12 00:53:01;;;;;;;;;;;;;;;6.05;100.00;100401.31;5012500;23;19925;-78
2023/12/12 00:55:38;;;;;;;;;;;;;;;6.06;100.00;100392.28;5319947;23;19951;-78
2023/12/12 01:01:10;;;;;;;;;;;;;;;6.09;100.00;100405.28;4970306;28;19928;-78
2023/12/12 01:04:09;;;;;;;;;;;;;;;6.05;100.00;100399.47;4996030;28;19928;-78
2023/12/12 01:06:35;;;;;;;;;;;;;;;6.12;100.00;100396.91;5001379;28;19925;-78
2023/12/12 01:09:09;;;;;;;;;;;;;;;6.13;100.00;100398.59;5008901;28;20416;-78
2023/12/12 01:14:44;;;;;;;;;;;;;;;6.05;100.00;100406.66;5004641;28;20021;-78
2023/12/12 01:20:02;;;;;;;;;;;;;;;6.10;100.00;100392.75;5729902;23;19979;-79
2023/12/12 01:22:27;;;;;;;;;;;;;;;6.16;100.00;100398.22;5003334;28;20348;-78
2023/12/12 01:25:01;;;;;;;;;;;;;;;6.11;100.00;100391.75;4998865;28;20428;-78
2023/12/12 01:30:32;;;;;;;;;;;;;;;6.07;100.00;100396.63;4997821;28;19929;-78
2023/12/12 01:33:06;;;;;;;;;;;;;;;6.07;100.00;100396.63;5003144;28;20297;-77
2023/12/12 01:36:09;;;;;;;;;;;;;;;6.10;100.00;100390.91;5002527;28;19925;-78
2023/12/12 01:38:44;;;;;;;;;;;;;;;6.08;100.00;100390.25;5001176;28;20550;-78
2023/12/12 01:44:27;;;;;;;;;;;;;;;5.99;100.00;100380.63;5004317;28;19980;-80
2023/12/12 01:50:05;;;;;;;;;;;;;;;5.97;100.00;100382.66;4993993;28;19928;-80
2023/12/12 01:52:30;;;;;;;;;;;;;;;5.94;100.00;100380.31;4975222;28;19976;-80
2023/12/12 01:55:10;;;;;;;;;;;;;;;5.74;100.00;100378.13;4993373;28;19921;-80
2023/12/12 02:03:44;;;;;;;;;;;;;;;5.91;100.00;100379.66;4995155;28;19985;-78
2023/12/12 02:06:34;;;;;;;;;;;;;;;5.96;100.00;100373.78;4976873;28;19922;-78
2023/12/12 02:15:40;;;;;;;;;;;;;;;5.86;100.00;100371.34;5011596;28;19928;-78
2023/12/12 02:18:11;;;;;;;;;;;;;;;5.86;100.00;100371.34;5005291;28;19948;-78
2023/12/12 02:24:20;;;;;;;;;;;;;;;5.87;100.00;100370.34;4964084;28;20365;-78
2023/12/12 02:26:45;;;;;;;;;;;;;;;5.75;100.00;100379.78;4964516;28;20374;-78
2023/12/12 02:29:11;;;;;;;;;;;;;;;5.61;100.00;100376.03;4963960;28;19931;-79
2023/12/12 02:31:36;;;;;;;;;;;;;;;5.60;100.00;100367.19;4964248;28;20389;-79
2023/12/12 02:34:01;;;;;;;;;;;;;;;5.68;100.00;100370.81;4975173;28;20309;-79
2023/12/12 02:36:27;;;;;;;;;;;;;;;5.68;100.00;100373.47;4963945;28;19946;-79
2023/12/12 02:38:52;;;;;;;;;;;;;;;5.58;100.00;100371.88;4972300;28;19929;-79
2023/12/12 02:41:18;;;;;;;;;;;;;;;5.45;100.00;100363.63;4972644;28;20021;-79
2023/12/12 02:43:43;;;;;;;;;;;;;;;5.34;100.00;100372.00;4967732;28;20030;-79
2023/12/12 02:46:08;;;;;;;;;;;;;;;5.15;100.00;100374.06;4982957;28;20375;-78
2023/12/12 02:48:34;;;;;;;;;;;;;;;4.98;100.00;100373.31;4973670;28;20352;-79
2023/12/12 02:50:59;;;;;;;;;;;;;;;4.92;100.00;100372.19;4964628;28;19941;-79
2023/12/12 02:53:24;;;;;;;;;;;;;;;4.82;100.00;100382.19;4964545;28;19926;-79
2023/12/12 02:55:49;;;;;;;;;;;;;;;4.66;100.00;100381.22;4973147;28;19950;-79
2023/12/12 02:58:14;;;;;;;;;;;;;;;4.55;100.00;100378.94;4955910;28;20416;-79
2023/12/12 03:00:40;;;;;;;;;;;;;;;4.55;100.00;100378.94;4963526;28;19988;-79
2023/12/12 03:03:05;;;;;;;;;;;;;;;4.61;100.00;100377.41;4971648;28;19925;-79
2023/12/12 03:05:30;;;;;;;;;;;;;;;4.53;100.00;100383.59;4968783;28;19993;-79
2023/12/12 03:07:55;;;;;;;;;;;;;;;4.59;100.00;100384.75;4972667;28;19922;-79
2023/12/12 03:10:21;;;;;;;;;;;;;;;4.70;100.00;100381.72;4975350;28;19949;-79
2023/12/12 03:12:46;;;;;;;;;;;;;;;4.72;100.00;100373.56;4971998;28;19972;-79
2023/12/12 03:15:12;;;;;;;;;;;;;;;4.68;100.00;100365.91;4955947;28;19986;-79
2023/12/12 03:17:37;;;;;;;;;;;;;;;4.65;100.00;100370.75;4969186;28;19980;-76
2023/12/12 03:20:04;;;;;;;;;;;;;;;4.74;100.00;100369.72;4959531;28;19977;-78
2023/12/12 03:22:29;;;;;;;;;;;;;;;4.73;100.00;100368.06;4984974;28;19929;-79
2023/12/12 03:24:55;;;;;;;;;;;;;;;4.72;100.00;100370.91;5000618;28;20509;-79
2023/12/12 03:27:20;;;;;;;;;;;;;;;4.64;100.00;100369.91;5172712;23;20494;-79
2023/12/12 03:29:45;;;;;;;;;;;;;;;4.59;100.00;100364.25;5056467;23;20060;-79
2023/12/12 03:32:11;;;;;;;;;;;;;;;4.57;100.00;100366.28;4994616;28;20285;-78
2023/12/12 03:34:36;;;;;;;;;;;;;;;4.53;100.00;100359.59;5010418;28;20374;-79
2023/12/12 03:37:01;;;;;;;;;;;;;;;4.50;100.00;100360.75;4998642;28;20400;-79
2023/12/12 03:39:26;;;;;;;;;;;;;;;4.44;100.00;100352.59;5000273;28;20326;-78
2023/12/12 03:41:52;;;;;;;;;;;;;;;4.44;100.00;100357.94;5144165;23;22526;-79
2023/12/12 03:44:17;;;;;;;;;;;;;;;4.41;100.00;100353.78;5002462;28;20021;-79
2023/12/12 03:46:42;;;;;;;;;;;;;;;4.40;100.00;100344.97;5000247;28;19930;-79
2023/12/12 03:49:08;;;;;;;;;;;;;;;4.40;100.00;100349.47;5014412;28;20260;-79
2023/12/12 03:51:33;;;;;;;;;;;;;;;4.43;100.00;100348.28;5004735;28;20361;-79
2023/12/12 03:53:58;;;;;;;;;;;;;;;4.42;100.00;100346.63;5002163;28;19922;-79
2023/12/12 03:56:24;;;;;;;;;;;;;;;4.36;100.00;100343.66;4999444;28;19929;-79
2023/12/12 03:58:49;;;;;;;;;;;;;;;4.35;100.00;100351.78;5002621;28;19928;-79
2023/12/12 04:01:14;;;;;;;;;;;;;;;4.30;100.00;100348.81;5151846;23;19933;-79
2023/12/12 04:04:04;;;;;;;;;;;;;;;4.24;100.00;100340.50;5005912;28;19929;-79
2023/12/12 04:07:06;;;;;;;;;;;;;;;4.23;100.00;100336.16;4995563;28;20393;-79
2023/12/12 04:10:04;;;;;;;;;;;;;;;4.14;100.00;100339.84;4999127;28;20251;-78
2023/12/12 04:12:38;;;;;;;;;;;;;;;4.13;100.00;100332.00;4997811;28;19921;-79
2023/12/12 04:15:03;;;;;;;;;;;;;;;4.01;100.00;100336.81;4997484;28;20090;-79
2023/12/12 04:17:29;;;;;;;;;;;;;;;3.99;100.00;100337.00;5007605;28;20449;-79
2023/12/12 04:19:55;;;;;;;;;;;;;;;3.97;100.00;100339.00;5003932;28;20381;-78
2023/12/12 04:22:20;;;;;;;;;;;;;;;3.96;100.00;100337.34;5004673;28;19976;-79
2023/12/12 04:24:45;;;;;;;;;;;;;;;3.95;100.00;100335.66;4996732;28;20408;-78
2023/12/12 04:27:10;;;;;;;;;;;;;;;3.93;100.00;100338.50;5000162;28;20061;-78
2023/12/12 04:29:36;;;;;;;;;;;;;;;3.92;100.00;100333.34;4993718;28;19957;-78
2023/12/12 04:32:02;;;;;;;;;;;;;;;3.85;100.00;100335.81;4994991;28;19937;-79
2023/12/12 04:34:30;;;;;;;;;;;;;;;3.87;100.00;100323.19;5006060;28;20301;-78
2023/12/12 04:36:55;;;;;;;;;;;;;;;3.84;100.00;100323.50;4994650;28;19925;-78
2023/12/12 04:39:20;;;;;;;;;;;;;;;3.77;100.00;100326.00;4994716;28;20297;-78
2023/12/12 04:41:46;;;;;;;;;;;;;;;3.77;100.00;100328.66;4995330;28;20294;-78
2023/12/12 04:44:11;;;;;;;;;;;;;;;3.69;100.00;100328.69;5010666;28;20004;-78
2023/12/12 04:46:36;;;;;;;;;;;;;;;3.68;100.00;100328.81;5000948;28;19922;-78
2023/12/12 04:49:02;;;;;;;;;;;;;;;3.62;100.00;100325.81;4996475;28;19932;-78
2023/12/12 04:51:27;;;;;;;;;;;;;;;3.71;100.00;100324.00;5007579;28;19917;-79
2023/12/12 04:53:53;;;;;;;;;;;;;;;3.72;100.00;100330.16;5068290;23;19920;-79
2023/12/12 04:56:18;;;;;;;;;;;;;;;3.59;100.00;100320.00;5000653;28;19933;-76
2023/12/12 04:58:43;;;;;;;;;;;;;;;3.51;100.00;100327.97;5003907;28;19922;-82
2023/12/12 05:01:11;;;;;;;;;;;;;;;3.51;100.00;100330.66;5003792;28;19925;-75
2023/12/12 05:03:37;;;;;;;;;;;;;;;3.53;100.00;100326.81;5019729;28;19906;-79
2023/12/12 05:06:02;;;;;;;;;;;;;;;3.55;100.00;100330.16;5004913;28;20289;-78
2023/12/12 05:08:27;;;;;;;;;;;;;;;3.62;100.00;100325.00;5002961;28;19936;-79
2023/12/12 05:10:52;;;;;;;;;;;;;;;3.65;100.00;100327.34;4999167;28;19923;-79
2023/12/12 05:13:21;;;;;;;;;;;;;;;3.61;100.00;100326.00;5000902;28;19932;-78
2023/12/12 05:15:46;;;;;;;;;;;;;;;3.63;100.00;100316.00;5004705;28;19918;-79
2023/12/12 05:18:11;;;;;;;;;;;;;;;3.66;100.00;100314.84;4998737;28;19976;-78
2023/12/12 05:20:37;;;;;;;;;;;;;;;3.76;100.00;100310.22;4997929;28;20020;-78
2023/12/12 05:23:02;;;;;;;;;;;;;;;3.75;100.00;100312.03;5016196;28;19965;-78
2023/12/12 05:25:27;;;;;;;;;;;;;;;3.76;100.00;100308.38;5007465;28;19930;-79
2023/12/12 05:27:52;;;;;;;;;;;;;;;3.79;100.00;100300.06;5012614;28;19922;-79
2023/12/12 05:30:18;;;;;;;;;;;;;;;3.83;100.00;100302.38;4999855;28;19921;-79
2023/12/12 05:32:43;;;;;;;;;;;;;;;3.84;100.00;100302.22;4992227;28;19932;-79
2023/12/12 05:35:08;;;;;;;;;;;;;;;3.80;100.00;100303.53;5000121;28;20027;-79
2023/12/12 05:37:33;;;;;;;;;;;;;;;3.77;100.00;100299.38;5002151;28;19926;-79
2023/12/12 05:39:59;;;;;;;;;;;;;;;3.77;100.00;100296.72;4997650;28;19936;-79
2023/12/12 05:42:25;;;;;;;;;;;;;;;3.75;100.00;100298.72;5003607;28;19929;-79
2023/12/12 05:44:51;;;;;;;;;;;;;;;3.70;100.00;100295.75;5001218;28;19921;-79
2023/12/12 05:47:16;;;;;;;;;;;;;;;3.69;100.00;100294.06;5005466;28;19921;-78
2023/12/12 05:49:41;;;;;;;;;;;;;;;3.65;100.00;100282.09;5024087;28;20410;-79
2023/12/12 05:52:07;;;;;;;;;;;;;;;3.64;100.00;100285.75;5020083;28;19921;-79
2023/12/12 05:54:32;;;;;;;;;;;;;;;3.67;100.00;100288.06;5008616;28;20273;-79
2023/12/12 05:56:57;;;;;;;;;;;;;;;3.65;100.00;100276.75;5008616;28;19929;-79
2023/12/12 05:59:22;;;;;;;;;;;;;;;3.52;100.00;100281.75;5006876;28;20280;-79
2023/12/12 06:01:48;;;;;;;;;;;;;;;3.40;100.00;100279.38;4996430;28;20339;-79
2023/12/12 06:04:13;;;;;;;;;;;;;;;3.28;100.00;100286.03;5025589;23;19913;-78
2023/12/12 06:06:42;;;;;;;;;;;;;;;3.05;100.00;100276.00;5377884;22;19931;-79
2023/12/12 06:09:10;;;;;;;;;;;;;;;2.90;100.00;100282.91;5003237;28;20029;-79
2023/12/12 06:11:36;;;;;;;;;;;;;;;2.78;100.00;100280.56;5017162;28;19941;-79
2023/12/12 06:14:03;;;;;;;;;;;;;;;2.78;100.00;100285.03;5011363;28;19979;-79
2023/12/12 06:16:28;;;;;;;;;;;;;;;2.57;100.00;100284.47;5009472;28;19917;-78
2023/12/12 06:18:53;;;;;;;;;;;;;;;2.41;100.00;100295.00;5016322;28;19975;-79
2023/12/12 06:21:18;;;;;;;;;;;;;;;2.28;100.00;100290.09;5030344;28;20358;-79
2023/12/12 06:27:18;;;;;;;;;;;;;;;1.97;100.00;100288.72;4920889;29;20303;-79
2023/12/12 06:30:05;;;;;;;;;;;;;;;1.86;100.00;100281.03;4918555;29;19929;-79
2023/12/12 06:32:31;;;;;;;;;;;;;;;1.76;100.00;100280.28;4921234;28;20017;-79
2023/12/12 06:35:05;;;;;;;;;;;;;;;1.72;100.00;100273.63;5006451;28;20417;-79
2023/12/12 06:37:40;;;;;;;;;;;;;;;1.76;100.00;100281.09;5009729;28;19922;-79
2023/12/12 06:40:05;;;;;;;;;;;;;;;1.69;100.00;100279.22;4996046;28;19985;-78
2023/12/12 06:42:40;;;;;;;;;;;;;;;1.67;100.00;100276.75;5002265;28;20016;-78
2023/12/12 06:45:09;;;;;;;;;;;;;;;1.79;100.00;100275.50;5015709;28;20008;-78
2023/12/12 06:47:34;;;;;;;;;;;;;;;1.93;100.00;100271.47;5008775;28;20404;-78
2023/12/12 06:50:00;;;;;;;;;;;;;;;1.88;100.00;100279.06;4996523;28;19918;-79
2023/12/12 06:52:25;;;;;;;;;;;;;;;2.06;100.00;100279.00;5003380;28;19922;-78
2023/12/12 06:54:53;;;;;;;;;;;;;;;2.12;100.00;100272.22;5003914;28;19971;-78
2023/12/12 06:57:18;;;;;;;;;;;;;;;2.13;100.00;100271.25;4998204;28;19921;-79
2023/12/12 06:59:44;;;;;;;;;;;;;;;2.24;100.00;100278.97;5015897;28;20388;-78
2023/12/12 07:02:10;;;;;;;;;;;;;;;2.32;100.00;100280.00;5006803;28;20281;-79
2023/12/12 07:04:36;;;;;;;;;;;;;;;2.35;100.00;100274.38;5011595;28;20012;-79
2023/12/12 07:07:01;;;;;;;;;;;;;;;2.40;100.00;100270.25;5007090;28;19922;-79
2023/12/12 07:09:27;;;;;;;;;;;;;;;2.48;100.00;100265.97;5010127;28;19949;-79
2023/12/12 07:11:53;;;;;;;;;;;;;;;2.30;100.00;100263.38;4995152;28;20005;-79
2023/12/12 07:14:18;;;;;;;;;;;;;;;2.22;100.00;100264.16;4999062;28;19980;-79
2023/12/12 07:16:43;;;;;;;;;;;;;;;2.15;100.00;100261.31;5008192;28;19917;-79
2023/12/12 07:19:08;;;;;;;;;;;;;;;2.17;100.00;100256.66;5003204;28;19937;-79
2023/12/12 07:21:41;;;;;;;;;;;;;;;2.30;100.00;100256.25;4995409;28;19969;-79
2023/12/12 07:24:10;;;;;;;;;;;;;;;2.32;100.00;100264.06;4995535;28;19924;-79
2023/12/12 07:26:35;;;;;;;;;;;;;;;2.36;100.00;100257.44;5007229;28;19929;-79
2023/12/12 07:29:01;;;;;;;;;;;;;;;2.42;100.00;100254.97;5013403;28;19921;-79
2023/12/12 07:31:26;;;;;;;;;;;;;;;2.49;100.00;100252.53;5046562;23;20483;-78
2023/12/12 07:33:51;;;;;;;;;;;;;;;2.54;100.00;100250.22;5002750;28;19980;-79
2023/12/12 07:36:16;;;;;;;;;;;;;;;2.61;100.00;100246.94;4995605;28;19926;-78
2023/12/12 07:38:45;;;;;;;;;;;;;;;2.67;100.00;100247.13;4994660;28;19932;-78
2023/12/12 07:41:11;;;;;;;;;;;;;;;2.72;100.00;100238.66;5067340;22;19933;-78
2023/12/12 07:43:39;;;;;;;;;;;;;;;2.82;100.00;100241.19;5003899;28;19921;-78
2023/12/12 07:48:29;;;;;;;;;;;;;;;3.05;100.00;100232.63;5146373;23;19933;-80
2023/12/12 07:50:55;;;;;;;;;;;;;;;3.15;100.00;100234.16;5015066;28;19922;-78
2023/12/12 07:53:20;;;;;;;;;;;;;;;3.17;100.00;100231.31;5007138;28;20369;-78
2023/12/12 07:55:49;;;;;;;;;;;;;;;3.24;100.00;100236.81;5004825;28;19985;-78
2023/12/12 07:58:14;;;;;;;;;;;;;;;3.24;100.00;100227.00;5170826;23;19926;-78
2023/12/12 08:00:39;;;;;;;;;;;;;;;3.30;100.00;100233.50;4994602;28;20021;-78
2023/12/12 08:03:05;;;;;;;;;;;;;;;3.34;100.00;100230.31;4977179;28;19965;-78
2023/12/12 08:05:30;;;;;;;;;;;;;;;3.40;100.00;100230.69;5003429;28;19941;-79
2023/12/12 08:07:56;;;;;;;;;;;;;;;3.55;100.00;100223.69;5006218;28;19931;-78
2023/12/12 08:10:21;;;;;;;;;;;;;;;3.68;100.00;100225.84;5013844;28;19929;-79
2023/12/12 08:12:46;;;;;;;;;;;;;;;3.73;100.00;100230.66;5010350;28;19925;-79
2023/12/12 08:15:12;;;;;;;;;;;;;;;3.81;100.00;100227.16;4995329;28;19969;-79
2023/12/12 08:17:38;;;;;;;;;;;;;;;3.87;100.00;100226.50;4995756;28;19921;-79
2023/12/12 08:20:04;;;;;;;;;;;;;;;3.96;100.00;100217.50;5007402;28;19925;-79
2023/12/12 08:22:29;;;;;;;;;;;;;;;4.03;100.00;100213.16;4998938;28;19922;-79
2023/12/12 08:24:54;;;;;;;;;;;;;;;4.09;100.00;100214.31;5008030;28;19972;-79
2023/12/12 08:27:20;;;;;;;;;;;;;;;4.16;100.00;100217.13;5013799;28;19965;-79
2023/12/12 08:29:46;;;;;;;;;;;;;;;4.23;100.00;100202.13;5013216;28;19922;-78
2023/12/12 08:32:11;;;;;;;;;;;;;;;4.40;100.00;100206.41;5001856;28;19922;-79
2023/12/12 08:34:37;;;;;;;;;;;;;;;4.61;100.00;100204.94;4997799;28;20393;-79
2023/12/12 08:37:03;;;;;;;;;;;;;;;4.77;100.00;100200.53;5013781;28;19944;-79
2023/12/12 08:39:29;;;;;;;;;;;;;;;4.87;100.00;100201.16;4999830;28;19953;-79
2023/12/12 08:41:54;;;;;;;;;;;;;;;4.97;100.00;100212.44;5012154;28;19929;-79
2023/12/12 08:44:19;;;;;;;;;;;;;;;5.15;100.00;100211.31;5020920;28;19917;-79
2023/12/12 08:46:44;;;;;;;;;;;;;;;5.21;100.00;100202.63;5023843;28;19927;-79
2023/12/12 08:49:13;;;;;;;;;;;;;;;5.34;100.00;100206.50;5011480;28;19949;-79
2023/12/12 08:51:39;;;;;;;;;;;;;;;5.48;100.00;100203.06;5000786;28;20000;-79
2023/12/12 08:54:04;;;;;;;;;;;;;;;5.49;100.00;100193.22;5000775;28;19957;-79
2023/12/12 08:56:30;;;;;;;;;;;;;;;5.50;100.00;100201.03;5000723;28;19961;-79
2023/12/12 08:58:55;;;;;;;;;;;;;;;5.60;100.00;100193.63;4994626;28;20417;-79
2023/12/12 09:01:20;;;;;;;;;;;;;;;5.58;100.00;100198.31;5003592;28;20322;-79
2023/12/12 09:03:45;;;;;;;;;;;;;;;5.59;100.00;100188.44;5001972;28;19918;-79
2023/12/12 09:06:11;;;;;;;;;;;;;;;5.54;100.00;100181.00;4994504;28;19922;-79
2023/12/12 09:08:36;;;;;;;;;;;;;;;5.67;100.00;100176.88;4994002;28;19921;-79
2023/12/12 09:11:02;;;;;;;;;;;;;;;5.68;100.00;100175.84;5005720;28;19928;-79
2023/12/12 09:13:27;;;;;;;;;;;;;;;5.70;100.00;100180.03;4987097;28;19918;-79
2023/12/12 09:15:52;;;;;;;;;;;;;;;5.77;100.00;100174.78;5006389;28;19992;-79
2023/12/12 09:18:18;;;;;;;;;;;;;;;5.87;100.00;100164.66;4998199;28;19926;-79
2023/12/12 09:20:43;;;;;;;;;;;;;;;5.91;100.00;100171.28;4993853;28;19918;-79
2023/12/12 09:23:08;;;;;;;;;;;;;;;6.05;100.00;100160.81;4993212;28;19936;-79
2023/12/12 09:25:34;;;;;;;;;;;;;;;6.07;100.00;100161.47;5007755;28;19922;-79
2023/12/12 09:27:59;;;;;;;;;;;;;;;6.16;100.00;100165.72;5010394;28;19929;-79
2023/12/12 09:30:24;;;;;;;;;;;;;;;6.29;100.00;100156.22;4992270;28;19929;-79
2023/12/12 09:32:49;;;;;;;;;;;;;;;6.26;100.00;100161.91;5005440;28;19961;-79
2023/12/12 09:35:15;;;;;;;;;;;;;;;6.37;100.00;100158.75;5008763;28;19993;-79
2023/12/12 09:37:43;;;;;;;;;;;;;;;6.45;100.00;100153.31;5008785;28;19964;-79
2023/12/12 09:40:09;;;;;;;;;;;;;;;6.53;100.00;100147.84;5009967;28;19921;-79
2023/12/12 09:42:34;;;;;;;;;;;;;;;6.67;100.00;100143.50;5009634;28;19917;-79
2023/12/12 09:45:03;;;;;;;;;;;;;;;6.72;100.00;100137.56;4978845;28;20370;-79
2023/12/12 09:47:29;;;;;;;;;;;;;;;6.67;100.00;100131.97;5006137;28;20024;-79
2023/12/12 09:49:55;;;;;;;;;;;;;;;6.68;100.00;100126.44;5002081;28;19995;-79
2023/12/12 09:52:20;;;;;;;;;;;;;;;6.80;100.00;100120.56;5011522;28;19921;-79
2023/12/12 09:54:45;;;;;;;;;;;;;;;6.81;100.00;100115.03;4988168;28;19929;-79
2023/12/12 09:57:10;;;;;;;;;;;;;;;6.91;100.00;100112.06;4994920;28;19922;-79
2023/12/12 09:59:36;;;;;;;;;;;;;;;6.81;100.00;100111.53;4977296;28;20502;-79
2023/12/12 10:02:01;;;;;;;;;;;;;;;6.83;100.00;100102.31;4996457;28;20310;-79
2023/12/12 10:04:26;;;;;;;;;;;;;;;6.89;100.00;100097.19;4992041;28;19932;-80
2023/12/12 10:06:53;;;;;;;;;;;;;;;6.91;100.00;100095.16;5005163;28;19953;-79
2023/12/12 10:09:19;;;;;;;;;;;;;;;6.91;100.00;100084.47;4976270;28;19918;-79
2023/12/12 10:11:45;;;;;;;;;;;;;;;6.90;100.00;100080.97;5009436;28;19992;-79
2023/12/12 10:14:10;;;;;;;;;;;;;;;7.01;100.00;100068.91;5002972;28;20326;-79
2023/12/12 10:16:35;;;;;;;;;;;;;;;7.25;100.00;100069.50;4993149;28;20000;-79
2023/12/12 10:19:01;;;;;;;;;;;;;;;7.34;100.00;100057.66;4993101;28;20000;-79
2023/12/12 10:21:29;;;;;;;;;;;;;;;7.34;100.00;100059.47;4996675;28;19960;-79
2023/12/12 10:23:54;;;;;;;;;;;;;;;7.34;100.00;100051.44;5003611;28;19932;-79
2023/12/12 10:26:37;;;;;;;;;;;;;;;7.42;100.00;100052.13;4992093;28;20012;-78
2023/12/12 10:29:03;;;;;;;;;;;;;;;7.44;100.00;100047.41;4996759;28;19922;-79
2023/12/12 10:31:28;;;;;;;;;;;;;;;7.44;100.00;100047.41;4992116;28;19929;-79
2023/12/12 10:33:55;;;;;;;;;;;;;;;7.58;100.00;100037.59;4991629;28;20290;-79
2023/12/12 10:36:20;;;;;;;;;;;;;;;7.62;100.00;100035.34;5000057;28;19922;-79
2023/12/12 10:38:48;;;;;;;;;;;;;;;7.66;100.00;100033.94;4992315;28;20278;-79
2023/12/12 10:41:14;;;;;;;;;;;;;;;7.71;100.00;100026.13;5007182;23;19929;-80
2023/12/12 10:43:40;;;;;;;;;;;;;;;7.68;100.00;100031.88;4992084;28;20005;-79
2023/12/12 10:46:10;;;;;;;;;;;;;;;7.81;100.00;100027.63;4991436;28;19933;-79
2023/12/12 10:48:35;;;;;;;;;;;;;;;7.84;100.00;100021.84;4987169;28;19929;-79
2023/12/12 10:51:00;;;;;;;;;;;;;;;7.98;100.00;100028.09;4981309;28;20298;-80
2023/12/12 10:53:26;;;;;;;;;;;;;;;8.15;100.00;100025.88;4970996;28;20037;-79
2023/12/12 10:55:52;;;;;;;;;;;;;;;8.25;100.00;100015.63;5163113;23;19953;-79
2023/12/12 10:58:17;;;;;;;;;;;;;;;8.32;100.00;100018.31;4995872;28;19922;-79
2023/12/12 11:00:42;;;;;;;;;;;;;;;8.32;100.00;100000.34;4992619;28;19926;-80
2023/12/12 11:03:07;;;;;;;;;;;;;;;8.33;100.00;100001.19;5003742;28;19929;-79
2023/12/12 11:05:32;;;;;;;;;;;;;;;8.51;100.00;99997.94;4986029;28;19922;-79
2023/12/12 11:07:58;;;;;;;;;;;;;;;8.56;100.00;99995.47;4981857;28;19921;-79
2023/12/12 11:10:23;;;;;;;;;;;;;;;8.61;100.00;99987.66;4997141;28;20365;-80
2023/12/12 11:12:50;;;;;;;;;;;;;;;8.64;100.00;99986.41;5016316;28;20431;-79
2023/12/12 11:15:15;;;;;;;;;;;;;;;8.64;100.00;99975.66;4981040;28;19922;-80
2023/12/12 11:17:42;;;;;;;;;;;;;;;8.74;100.00;99967.22;4998894;28;20341;-80
2023/12/12 11:20:12;;;;;;;;;;;;;;;8.67;100.00;99969.06;4983399;28;19922;-80
2023/12/12 11:22:37;;;;;;;;;;;;;;;8.85;100.00;99966.56;4994921;28;20340;-79
2023/12/12 11:25:03;;;;;;;;;;;;;;;8.90;100.00;99964.09;5008886;28;20484;-79
2023/12/12 11:27:28;;;;;;;;;;;;;;;8.89;100.00;99958.97;4997409;28;19970;-80
2023/12/12 11:29:54;;;;;;;;;;;;;;;8.92;100.00;99940.56;5049250;23;19977;-80
2023/12/12 11:32:23;;;;;;;;;;;;;;;8.87;100.00;99945.72;4997787;28;19922;-80
2023/12/12 11:34:49;;;;;;;;;;;;;;;9.05;100.00;99938.88;4984303;28;19927;-79
2023/12/12 11:37:14;;;;;;;;;;;;;;;9.22;100.00;99936.59;5002058;28;19921;-79
2023/12/12 11:39:44;;;;;;;;;;;;;;;9.30;100.00;99933.66;4987508;28;19925;-79
2023/12/12 11:42:16;;;;;;;;;;;;;;;9.10;100.00;99937.22;5006388;28;20397;-79
2023/12/12 11:44:41;;;;;;;;;;;;;;;9.11;100.00;99932.69;5011117;28;19944;-79
2023/12/12 11:47:16;;;;;;;;;;;;;;;9.10;100.00;99925.66;5006089;28;20004;-80
2023/12/12 11:49:43;;;;;;;;;;;;;;;8.94;100.00;99922.41;5000364;28;19984;-79
2023/12/12 11:52:09;;;;;;;;;;;;;;;8.91;100.00;99917.44;5007227;28;19992;-79
2023/12/12 11:54:34;;;;;;;;;;;;;;;9.04;100.00;99919.28;5009236;28;20366;-79
2023/12/12 11:57:00;;;;;;;;;;;;;;;9.25;100.00;99912.81;4996603;28;20433;-79
2023/12/12 11:59:26;;;;;;;;;;;;;;;9.49;100.00;99906.94;5010354;28;19933;-79
2023/12/12 12:01:51;;;;;;;;;;;;;;;9.51;100.00;99902.19;5014867;28;20299;-79
2023/12/12 12:04:16;;;;;;;;;;;;;;;9.60;100.00;99902.75;5008828;28;19921;-79
2023/12/12 12:06:43;;;;;;;;;;;;;;;9.50;100.00;99898.69;5004942;28;19925;-79
2023/12/12 12:09:08;;;;;;;;;;;;;;;9.53;100.00;99892.06;4997433;28;19928;-78
2023/12/12 12:11:37;;;;;;;;;;;;;;;9.79;100.00;99893.78;5027538;28;19960;-79
2023/12/12 12:14:02;;;;;;;;;;;;;;;10.77;98.44;99883.53;5007171;28;19944;-79
2023/12/12 12:16:27;;;;;;;;;;;;;;;11.60;89.21;99872.44;5003722;28;19922;-79
2023/12/12 12:18:54;;;;;;;;;;;;;;;11.74;88.21;99869.56;5031304;23;19932;-79
2023/12/12 12:21:19;;;;;;;;;;;;;;;11.66;86.14;99862.63;4989760;28;19929;-79
2023/12/12 12:23:45;;;;;;;;;;;;;;;11.34;87.32;99863.63;4978383;28;19918;-79
2023/12/12 12:26:11;;;;;;;;;;;;;;;10.98;89.20;99857.22;4994359;28;19926;-79
2023/12/12 12:28:36;;;;;;;;;;;;;;;10.58;90.78;99845.00;4995436;28;20413;-80
2023/12/12 12:31:02;;;;;;;;;;;;;;;10.37;92.07;99846.22;5005138;28;19925;-80
2023/12/12 12:33:30;;;;;;;;;;;;;;;10.35;92.80;99845.59;5008822;28;20369;-79
2023/12/12 12:35:55;;;;;;;;;;;;;;;10.22;93.72;99841.16;5084523;23;19936;-79
2023/12/12 12:38:25;;;;;;;;;;;;;;;10.21;94.08;99833.31;4994365;28;19921;-79
2023/12/12 12:40:53;;;;;;;;;;;;;;;10.08;94.76;99831.56;5000748;28;19925;-79
2023/12/12 12:43:18;;;;;;;;;;;;;;;10.21;95.49;99817.19;5003423;28;19925;-79
2023/12/12 12:45:46;;;;;;;;;;;;;;;10.21;96.95;99818.00;5000768;28;19926;-79
2023/12/12 12:48:19;;;;;;;;;;;;;;;10.25;95.15;99818.38;5006091;28;19922;-79
2023/12/12 12:50:46;;;;;;;;;;;;;;;10.37;96.36;99815.78;4997822;28;20386;-79
2023/12/12 12:53:11;;;;;;;;;;;;;;;10.91;94.36;99826.88;4997998;28;19932;-79
2023/12/12 12:55:38;;;;;;;;;;;;;;;11.32;89.81;99814.53;5002154;28;19921;-79
2023/12/12 12:58:03;;;;;;;;;;;;;;;11.70;88.39;99806.34;4992719;28;19928;-79
2023/12/12 13:00:28;;;;;;;;;;;;;;;12.13;84.01;99805.31;5001656;28;20360;-79
2023/12/12 13:02:55;;;;;;;;;;;;;;;12.25;83.12;99806.13;4993378;28;19973;-79
2023/12/12 13:05:25;;;;;;;;;;;;;;;13.17;78.02;99798.38;4996109;28;20008;-79
2023/12/12 13:07:53;;;;;;;;;;;;;;;13.30;76.13;99796.44;4996535;28;19921;-79
2023/12/12 13:10:19;;;;;;;;;;;;;;;12.86;76.58;99795.06;4998377;28;20301;-79
2023/12/12 13:12:47;;;;;;;;;;;;;;;12.30;79.25;99793.81;5008743;28;19929;-79
2023/12/12 13:15:24;;;;;;;;;;;;;;;12.01;80.84;99790.97;5017582;28;19952;-79
2023/12/12 13:20:52;;;;;;;;;;;;;;;11.40;82.48;99782.94;5009985;28;19933;-79
2023/12/12 13:23:19;;;;;;;;;;;;;;;11.00;86.27;99777.03;4993809;28;19925;-79